Connor, Texas
Current Conditions -  °F | °C
As of 2:53 AM on Sunday 23 Nov 2014 (Local Time) from KUTS Reporting Station
Clear Clear  
Wind Chill: 61°   Ceiling: Unl
Heat Index: 61°   Visibility: 10mi
Dew Point: 59°   Wind: 6mph
Humidity: 93%   Direction: 210°SSW
Pressure: 29.61"   Gusts: NA
Location:  30.9578°N, 95.8924°W
Report Text: KUTS 230853Z AUTO 21005KT 10SM CLR 16/15 A2961 RMK AO2 RAE04 SLP024 P0000 60068 T01610150 55044
Loading
Personal Weather Stations






























Interactive Weather Map New forecast layout! Learn more

10-Day Weather Forecast

Advertisements
Track Severe Weather on mobile